^^
Saratoga-Weather Station Historical Data
Daily Summary for April 18, 2020 Units:  Metric    English   Both
Daily Weekly Monthly Yearly Custom
  High: Low: Average:
Temperature: 7.4 °C 4.7 °C 5.8 °C
Dew Point: 5.6 °C 3.8 °C 4.7 °C
Humidity: 95% 88% 92%
Wind Speed: 1.4km/h 0km/h 0km/h
Wind Gust: 1.6km/h - -
Wind- - West
Pressure: 1021.7 hPa 1021.0 hPa -
Precipitation: 0.0 mm    
Historical Graphs
 
 
Tabular Data for April 18, 2020
Time Temperature Dew Point Pressure Wind Wind Speed Wind Gust Humidity Rainfall Rate (Hourly) solar
00:03 7.4 °C 5.5 °C 1021.0 hPa Calm     88% 0.0 mm 0 W/m2
00:08 7.3 °C 5.6 °C 1021.0 hPa Calm   1.6 km/h 89% 0.0 mm 0 W/m2
00:13 7.2 °C 5.5 °C 1021.0 hPa Calm     89% 0.0 mm 0 W/m2
00:19 7.1 °C 5.4 °C 1021.0 hPa Calm   1.6 km/h 89% 0.0 mm 0 W/m2
00:24 7 °C 5.3 °C 1021.0 hPa West 1.4 km/h 1.6 km/h 89% 0.0 mm 0 W/m2
00:29 7 °C 5.3 °C 1021.0 hPa Calm     89% 0.0 mm 0 W/m2
00:34 6.9 °C 5.2 °C 1021.0 hPa Calm     89% 0.0 mm 0 W/m2
00:39 6.9 °C 5.4 °C 1021.0 hPa Calm     90% 0.0 mm 0 W/m2
00:44 6.8 °C 5.3 °C 1021.0 hPa Calm     90% 0.0 mm 0 W/m2
00:49 6.8 °C 5.3 °C 1021.0 hPa Calm     90% 0.0 mm 0 W/m2
00:54 6.8 °C 5.3 °C 1021.0 hPa Calm     90% 0.0 mm 0 W/m2
00:59 6.8 °C 5.3 °C 1021.0 hPa Calm     90% 0.0 mm 0 W/m2
01:04 6.7 °C 5.3 °C 1021.0 hPa Calm     91% 0.0 mm 0 W/m2
01:09 6.7 °C 5.3 °C 1021.0 hPa Calm     91% 0.0 mm 0 W/m2
01:14 6.7 °C 5.3 °C 1021.0 hPa Calm     91% 0.0 mm 0 W/m2
01:19 6.6 °C 5.2 °C 1021.0 hPa Calm     91% 0.0 mm 0 W/m2
01:24 6.5 °C 5.1 °C 1021.0 hPa Calm     91% 0.0 mm 0 W/m2
01:29 6.4 °C 5 °C 1021.0 hPa Calm     91% 0.0 mm 0 W/m2
01:34 6.4 °C 5 °C 1021.0 hPa Calm     91% 0.0 mm 0 W/m2
01:39 6.3 °C 4.9 °C 1021.0 hPa Calm     91% 0.0 mm 0 W/m2
01:44 6.3 °C 4.9 °C 1021.0 hPa Calm     91% 0.0 mm 0 W/m2
01:49 6.2 °C 4.8 °C 1021.0 hPa Calm     91% 0.0 mm 0 W/m2
01:54 6.1 °C 4.7 °C 1021.0 hPa Calm     91% 0.0 mm 0 W/m2
01:59 6.1 °C 4.9 °C 1021.0 hPa Calm     92% 0.0 mm 0 W/m2
02:04 6 °C 4.8 °C 1021.0 hPa Calm     92% 0.0 mm 0 W/m2
02:09 5.9 °C 4.7 °C 1021.0 hPa Calm     92% 0.0 mm 0 W/m2
02:14 5.8 °C 4.6 °C 1021.3 hPa Calm     92% 0.0 mm 0 W/m2
02:19 5.7 °C 4.5 °C 1021.3 hPa Calm     92% 0.0 mm 0 W/m2
02:24 5.7 °C 4.7 °C 1021.3 hPa Calm     93% 0.0 mm 0 W/m2
02:29 5.7 °C 4.7 °C 1021.3 hPa Calm     93% 0.0 mm 0 W/m2
02:34 5.7 °C 4.7 °C 1021.3 hPa Calm     93% 0.0 mm 0 W/m2
02:39 5.7 °C 4.7 °C 1021.3 hPa Calm     93% 0.0 mm 0 W/m2
02:44 5.6 °C 4.6 °C 1021.3 hPa Calm     93% 0.0 mm 0 W/m2
02:49 5.6 °C 4.6 °C 1021.3 hPa Calm     93% 0.0 mm 0 W/m2
02:54 5.6 °C 4.6 °C 1021.3 hPa Calm     93% 0.0 mm 0 W/m2
02:59 5.6 °C 4.6 °C 1021.3 hPa Calm     93% 0.0 mm 0 W/m2
03:04 5.6 °C 4.6 °C 1021.3 hPa Calm     93% 0.0 mm 0 W/m2
03:09 5.5 °C 4.5 °C 1021.3 hPa Calm     93% 0.0 mm 0 W/m2
03:14 5.4 °C 4.4 °C 1021.3 hPa Calm     93% 0.0 mm 0 W/m2
03:19 5.4 °C 4.4 °C 1021.3 hPa Calm     93% 0.0 mm 0 W/m2
03:24 5.3 °C 4.3 °C 1021.3 hPa Calm     93% 0.0 mm 0 W/m2
03:29 5.2 °C 4.2 °C 1021.3 hPa Calm     93% 0.0 mm 0 W/m2
03:34 5.2 °C 4.2 °C 1021.3 hPa Calm     93% 0.0 mm 0 W/m2
03:39 5.1 °C 4.1 °C 1021.3 hPa Calm     93% 0.0 mm 0 W/m2
03:44 5 °C 4.1 °C 1021.3 hPa Calm     94% 0.0 mm 0 W/m2
03:49 4.9 °C 4 °C 1021.3 hPa Calm     94% 0.0 mm 0 W/m2
03:55 4.9 °C 4 °C 1021.7 hPa Calm     94% 0.0 mm 0 W/m2
04:00 4.8 °C 3.9 °C 1021.7 hPa Calm     94% 0.0 mm 0 W/m2
04:05 4.8 °C 3.9 °C 1021.7 hPa Calm     94% 0.0 mm 0 W/m2
04:10 4.7 °C 3.8 °C 1021.7 hPa Calm     94% 0.0 mm 0 W/m2
04:15 4.8 °C 3.9 °C 1021.7 hPa Calm     94% 0.0 mm 0 W/m2
04:20 4.8 °C 3.9 °C 1021.7 hPa Calm     94% 0.0 mm 0 W/m2
04:25 4.8 °C 3.9 °C 1021.7 hPa Calm     94% 0.0 mm 0 W/m2
04:30 4.8 °C 3.9 °C 1021.7 hPa Calm     94% 0.0 mm 0 W/m2
04:35 4.9 °C 4.2 °C 1021.7 hPa Calm     95% 0.0 mm 0 W/m2
04:40 5 °C 4.3 °C 1021.7 hPa Calm     95% 0.0 mm 0 W/m2
04:45 5 °C 4.3 °C 1021.7 hPa Calm     95% 0.0 mm 0 W/m2
04:50 5.1 °C 4.4 °C 1021.7 hPa Calm     95% 0.0 mm 0 W/m2
04:55 5 °C 4.3 °C 1021.7 hPa Calm     95% 0.0 mm 0 W/m2
05:00 4.9 °C 4.2 °C 1021.7 hPa Calm     95% 0.0 mm 0 W/m2
05:05 4.9 °C 4.2 °C 1021.7 hPa Calm     95% 0.0 mm 0 W/m2
Juneau County Weather
Compliments of Weather Underground - 2 mb